Brisbane - nearby METAR Reports

YBBN - Brisbane Intl Ar, Australia
Distance from station: NNE 11km
Updated: 23/10/2018 09:30
Few Clouds
Few Clouds
 Wind from E
Wind: E 9 km/h
Temperature: 25°C
Dew Point: 17°C
Humidity: 61%
Barometer: 1017 hPa
Clouds: Few Clouds
Visibility: 10 km
Cloud details: Few Clouds 853 m
2018/10/22 23:30 YBBN 222330Z 09005KT 060V170 9999 FEW028 25/17 Q1017 FM0030 04010KT 9999 FEW035
YAMB - Amberley, Australia
Distance from station: WSW 42km
Updated: 23/10/2018 09:30
Few Clouds
Few Clouds
 Wind from SW
Wind: SW 9 km/h
Temperature: 25°C
Dew Point: 16°C
Humidity: 57%
Barometer: 1017 hPa
Clouds: Few Clouds
Visibility: 10 km
Cloud details: Few Clouds 914 m
2018/10/22 23:30 YAMB 222330Z 23005KT 9999 FEW030 25/16 Q1017 NOSIG
 
YBCG - Coolangatta Aws, Australia
Distance from station: SSE 102km
Updated: 23/10/2018 09:30
Clear
Clear
 Wind from SSE
Wind: SSE 11 km/h
Temperature: 25°C
Dew Point: 16°C
Humidity: 57%
Barometer: 1017 hPa
Clouds: Clear
Visibility: 10 km
2018/10/22 23:30 YBCG 222330Z AUTO 15006KT 9999 // NCD 25/16 Q1017 RF00.0/000.0